Time;durP1;ratioP1;P1;durP2;ratioP2;P2;SDS_P1;SDS_P2;PMS_P1;PMS_P2;Temp;Humidity;BMP_temperature;BMP_pressure;BME280_temperature;BME280_humidity;BME280_pressure;Samples;Min_cycle;Max_cycle;Signal;HPM_P1;HPM_P2
2023/01/07 09:37:33;;;;;;;12.70;4.00;;;;;;;6.27;82.92;96657.69;2082417;28;21043;-58
2023/01/07 09:41:30;;;;;;;5.10;3.25;;;;;;;6.58;81.93;96664.59;2082479;28;20568;-58
2023/01/07 09:42:55;;;;;;;7.57;4.30;;;;;;;6.74;81.69;96663.25;2073951;28;20243;-58
2023/01/07 09:44:14;;;;;;;6.60;3.03;;;;;;;6.88;80.91;96649.88;2064887;28;20233;-58
2023/01/07 09:45:19;;;;;;;5.78;3.00;;;;;;;7.14;79.72;96659.47;2075431;28;20854;-59
2023/01/07 09:46:22;;;;;;;4.40;2.92;;;;;;;7.40;78.57;96642.22;2072247;28;20601;-58
2023/01/07 09:47:28;;;;;;;3.75;2.42;;;;;;;8.23;77.21;96648.13;2073149;28;20247;-59
2023/01/07 09:48:40;;;;;;;5.13;3.28;;;;;;;8.47;75.16;96652.50;2070845;28;20533;-59
2023/01/07 09:49:46;;;;;;;4.47;2.55;;;;;;;8.91;73.60;96632.69;2072033;28;20227;-58
2023/01/07 09:51:44;;;;;;;4.90;1.95;;;;;;;10.44;68.33;96648.19;2073804;28;20277;-59
2023/01/07 09:52:50;;;;;;;3.30;2.25;;;;;;;10.71;66.49;96634.81;2062370;28;20221;-59
2023/01/07 09:53:55;;;;;;;4.40;2.20;;;;;;;12.70;62.29;96633.84;2064977;28;20258;-58
2023/01/07 09:55:23;;;;;;;3.83;2.03;;;;;;;12.79;60.98;96633.34;2064343;28;20231;-59
2023/01/07 09:56:31;;;;;;;4.55;2.50;;;;;;;13.94;57.85;96633.13;2068227;28;20236;-59
2023/01/07 09:57:32;;;;;;;3.58;1.98;;;;;;;13.58;57.35;96633.47;2072429;28;20259;-59
2023/01/07 09:58:34;;;;;;;3.40;2.10;;;;;;;13.53;57.28;96629.34;2075482;28;20198;-58
2023/01/07 09:59:38;;;;;;;3.28;1.95;;;;;;;12.78;58.65;96631.66;2074063;28;20203;-59
2023/01/07 10:00:53;;;;;;;3.20;1.95;;;;;;;12.92;58.71;96630.09;2072070;28;20204;-59
2023/01/07 10:02:16;;;;;;;3.63;2.30;;;;;;;13.57;57.71;96629.16;2073952;28;20229;-59
2023/01/07 10:03:43;;;;;;;2.97;2.08;;;;;;;11.96;60.95;96633.28;2073795;28;20213;-59
2023/01/07 10:05:23;;;;;;;4.70;2.08;;;;;;;12.42;59.70;96624.84;2073481;28;20198;-59
2023/01/07 10:06:48;;;;;;;4.13;1.90;;;;;;;12.49;60.10;96628.81;2070712;28;20261;-59
2023/01/07 10:07:55;;;;;;;4.15;2.33;;;;;;;11.78;61.25;96632.38;2074037;28;20231;-56
2023/01/07 10:09:49;;;;;;;3.58;1.85;;;;;;;10.74;64.05;96623.38;2073137;28;20255;-57
2023/01/07 10:10:57;;;;;;;3.75;2.38;;;;;;;9.90;66.80;96621.78;2072183;28;20279;-56
2023/01/07 10:12:16;;;;;;;4.03;2.53;;;;;;;9.26;69.35;96627.88;2072403;28;20229;-58
2023/01/07 10:13:23;;;;;;;4.63;3.05;;;;;;;9.23;70.19;96628.84;2073467;28;20246;-59
2023/01/07 10:14:44;;;;;;;4.72;2.75;;;;;;;9.28;70.45;96632.13;2072385;28;20222;-59
2023/01/07 10:15:54;;;;;;;5.45;2.95;;;;;;;8.89;71.11;96627.53;2076005;28;20759;-59
2023/01/07 10:17:20;;;;;;;5.43;3.50;;;;;;;8.91;71.33;96623.13;2073447;28;20276;-58
2023/01/07 10:18:37;;;;;;;5.07;3.35;;;;;;;8.72;72.18;96630.75;2071488;28;20197;-59
2023/01/07 10:19:56;;;;;;;7.82;3.92;;;;;;;8.74;72.65;96623.75;2073039;28;20212;-59
2023/01/07 10:21:23;;;;;;;7.00;4.10;;;;;;;8.52;72.60;96618.50;2071572;28;20249;-58
2023/01/07 10:22:31;;;;;;;6.10;4.15;;;;;;;8.15;74.01;96605.06;2065421;28;20225;-58
2023/01/07 10:23:37;;;;;;;6.82;4.60;;;;;;;8.05;74.80;96621.03;2065428;28;20626;-58
2023/01/07 10:24:43;;;;;;;7.82;4.50;;;;;;;8.00;75.16;96616.84;2065752;28;20264;-58
2023/01/07 10:25:49;;;;;;;7.68;4.20;;;;;;;7.98;75.19;96608.22;2064759;28;20198;-59
2023/01/07 10:26:54;;;;;;;6.18;3.80;;;;;;;8.32;74.60;96612.25;2064251;28;20825;-59
2023/01/07 10:28:02;;;;;;;5.22;3.92;;;;;;;8.53;73.92;96601.97;2063936;28;20195;-58
2023/01/07 10:29:39;;;;;;;6.93;4.57;;;;;;;9.28;70.77;96606.06;2063284;28;20202;-58
2023/01/07 10:30:44;;;;;;;6.63;3.80;;;;;;;9.78;70.08;96598.81;2063628;28;20696;-59
2023/01/07 10:31:49;;;;;;;7.65;3.95;;;;;;;10.62;65.81;96604.72;2065021;28;20257;-59
2023/01/07 10:33:03;;;;;;;6.18;2.90;;;;;;;9.50;69.00;96591.28;2064086;28;20403;-58
2023/01/07 10:34:13;;;;;;;8.60;4.70;;;;;;;9.75;68.96;96598.94;2064344;28;20205;-58
2023/01/07 10:35:19;;;;;;;4.68;3.03;;;;;;;9.71;69.07;96594.75;2064843;28;20202;-58
2023/01/07 10:36:31;;;;;;;4.78;3.35;;;;;;;9.19;69.89;96598.59;2061224;28;20226;-58
2023/01/07 10:37:35;;;;;;;7.93;3.47;;;;;;;9.34;70.75;96601.50;2063948;28;20209;-58
2023/01/07 10:38:41;;;;;;;4.30;3.00;;;;;;;9.17;70.54;96574.38;2063160;28;20194;-58
2023/01/07 10:39:58;;;;;;;6.72;3.72;;;;;;;11.22;66.20;96595.88;2065546;28;20198;-58
2023/01/07 10:41:11;;;;;;;4.70;2.83;;;;;;;12.58;61.35;96586.44;2063891;28;20230;-58
2023/01/07 10:42:22;;;;;;;4.78;3.28;;;;;;;13.48;58.96;96580.66;2064350;28;20650;-59
2023/01/07 10:43:43;;;;;;;5.55;3.70;;;;;;;13.26;58.84;96584.47;2061995;28;20534;-58
2023/01/07 10:45:17;;;;;;;5.25;3.10;;;;;;;12.43;59.76;96557.59;2064831;28;20194;-58
2023/01/07 10:46:40;;;;;;;6.72;3.88;;;;;;;13.25;58.41;96572.31;2053979;28;21019;-58
2023/01/07 10:48:00;;;;;;;4.75;3.00;;;;;;;12.67;59.77;96571.13;2062958;28;20300;-58
2023/01/07 10:49:14;;;;;;;4.97;3.13;;;;;;;11.52;62.00;96561.31;2066274;28;20199;-59
2023/01/07 10:50:22;;;;;;;6.47;4.28;;;;;;;10.28;65.32;96554.03;2063875;28;20202;-59
2023/01/07 10:52:09;;;;;;;9.27;2.88;;;;;;;10.25;66.28;96572.41;2065013;28;20202;-58
2023/01/07 10:53:32;;;;;;;5.05;3.35;;;;;;;11.23;64.48;96562.75;2055404;28;20595;-58
2023/01/07 10:54:48;;;;;;;5.28;3.17;;;;;;;13.09;59.36;96561.84;2061037;28;20194;-58
2023/01/07 10:56:08;;;;;;;5.32;3.00;;;;;;;13.21;57.96;96552.44;2059334;28;20210;-58
2023/01/07 10:57:17;;;;;;;6.70;3.28;;;;;;;14.07;56.57;96541.34;2058785;28;20220;-58
2023/01/07 10:58:18;;;;;;;6.47;3.38;;;;;;;14.45;55.26;96553.94;2056792;28;20211;-59
2023/01/07 10:59:21;;;;;;;4.88;2.80;;;;;;;14.86;53.38;96534.72;2057509;28;20233;-58
2023/01/07 11:00:23;;;;;;;4.15;2.92;;;;;;;14.74;54.19;96539.94;2058922;28;20291;-58
2023/01/07 11:01:39;;;;;;;4.72;3.13;;;;;;;13.79;55.43;96529.88;2057735;28;20259;-58
2023/01/07 11:02:49;;;;;;;4.43;3.00;;;;;;;14.98;53.94;96540.16;2058924;28;20217;-59
2023/01/07 11:03:52;;;;;;;3.30;2.45;;;;;;;15.06;53.02;96530.00;2061210;28;20226;-58
2023/01/07 11:04:55;;;;;;;5.55;2.92;;;;;;;15.06;53.62;96518.63;2056457;28;20199;-59
2023/01/07 11:06:03;;;;;;;4.47;2.50;;;;;;;16.26;51.22;96533.50;2058980;28;20195;-58
2023/01/07 11:07:12;;;;;;;4.50;2.60;;;;;;;16.25;50.79;96522.13;2059128;28;20230;-57
2023/01/07 11:08:37;;;;;;;4.47;2.10;;;;;;;15.88;50.46;96532.53;2058757;28;20206;-56
2023/01/07 11:09:42;;;;;;;4.07;2.40;;;;;;;15.46;51.38;96516.00;2059643;28;20206;-57
2023/01/07 11:10:44;;;;;;;4.03;2.25;;;;;;;15.21;50.90;96522.91;2060476;28;20237;-58
2023/01/07 11:11:47;;;;;;;2.72;1.55;;;;;;;14.67;52.43;96521.91;2056260;28;20230;-58
2023/01/07 11:12:51;;;;;;;5.80;2.60;;;;;;;14.19;54.38;96527.50;2057875;28;20202;-59
2023/01/07 11:14:25;;;;;;;7.72;2.15;;;;;;;14.35;53.62;96523.91;2060033;28;20214;-58
2023/01/07 11:15:49;;;;;;;3.33;1.95;;;;;;;14.63;53.38;96530.09;2060090;28;20236;-58
2023/01/07 11:16:55;;;;;;;3.00;2.00;;;;;;;15.01;52.15;96518.94;2059980;28;20234;-58
2023/01/07 11:18:30;;;;;;;3.00;1.90;;;;;;;15.25;51.93;96527.03;2058507;28;20552;-59
2023/01/07 11:19:51;;;;;;;4.95;2.13;;;;;;;15.52;52.01;96523.50;2063844;28;20190;-58
2023/01/07 11:20:54;;;;;;;3.88;2.53;;;;;;;16.20;50.28;96508.44;2061662;28;20202;-59
2023/01/07 11:21:56;;;;;;;4.25;2.33;;;;;;;15.76;50.20;96501.75;2056840;28;20227;-58
2023/01/07 11:22:57;;;;;;;3.30;2.30;;;;;;;14.51;52.30;96516.78;2058582;28;20230;-58
2023/01/07 11:24:00;;;;;;;4.15;2.20;;;;;;;13.93;53.81;96507.19;2058320;28;20893;-58
2023/01/07 11:25:27;;;;;;;5.97;2.15;;;;;;;13.57;55.60;96503.22;2058759;28;20203;-59
2023/01/07 11:26:31;;;;;;;2.25;1.75;;;;;;;14.13;54.58;96506.84;2060090;28;20230;-58
2023/01/07 11:27:33;;;;;;;4.25;2.25;;;;;;;14.55;53.67;96506.91;2058754;28;20214;-59
2023/01/07 11:28:39;;;;;;;3.85;2.40;;;;;;;14.90;52.63;96495.94;2059953;28;20202;-58
2023/01/07 11:29:54;;;;;;;4.63;2.45;;;;;;;14.17;54.24;96503.09;2060097;28;20198;-58
2023/01/07 11:30:59;;;;;;;3.47;2.20;;;;;;;13.90;55.29;96502.97;2063693;28;20206;-58
2023/01/07 11:32:02;;;;;;;3.90;2.80;;;;;;;13.45;55.69;96496.94;2062076;28;20233;-58
2023/01/07 11:33:05;;;;;;;4.60;2.45;;;;;;;13.39;56.54;96493.72;2060243;28;20245;-58
2023/01/07 11:34:18;;;;;;;5.35;2.53;;;;;;;13.45;56.32;96495.13;2059101;28;20325;-58
2023/01/07 11:35:22;;;;;;;4.10;2.45;;;;;;;13.88;55.36;96492.59;2060304;28;20203;-58
2023/01/07 11:36:41;;;;;;;5.88;3.28;;;;;;;15.00;53.84;96488.31;2060068;28;20199;-58
2023/01/07 11:37:45;;;;;;;4.50;3.00;;;;;;;15.32;52.40;96493.25;2058352;28;20242;-57
2023/01/07 11:38:47;;;;;;;5.20;3.20;;;;;;;15.60;51.70;96478.25;2060590;28;20236;-57
2023/01/07 11:39:57;;;;;;;5.53;2.58;;;;;;;15.40;52.16;96474.31;2060000;28;20203;-57
2023/01/07 11:41:04;;;;;;;6.50;3.50;;;;;;;14.82;52.57;96462.28;2059604;28;20329;-56
2023/01/07 11:43:39;;;;;;;7.65;3.97;;;;;;;14.80;53.89;96471.22;2056263;28;20199;-57
2023/01/07 11:44:40;;;;;;;6.43;3.20;;;;;;;14.42;54.46;96475.28;2060038;28;20206;-57
2023/01/07 11:45:51;;;;;;;7.88;3.75;;;;;;;14.63;54.18;96475.72;2060232;28;20202;-57
2023/01/07 11:47:16;;;;;;;6.82;3.63;;;;;;;15.45;52.89;96456.44;2058225;28;20722;-57
2023/01/07 11:48:35;;;;;;;6.65;3.05;;;;;;;15.52;51.87;96462.97;2060216;28;20223;-57
2023/01/07 11:49:43;;;;;;;4.40;3.00;;;;;;;15.55;51.59;96461.94;2059959;28;20205;-57
2023/01/07 11:51:03;;;;;;;6.72;3.47;;;;;;;15.01;53.26;96455.84;2057690;28;20211;-57
2023/01/07 11:52:15;;;;;;;4.03;2.83;;;;;;;15.02;53.48;96460.16;2060357;28;20222;-57
2023/01/07 11:53:17;;;;;;;5.65;3.83;;;;;;;15.23;52.98;96451.78;2059866;28;20832;-57
2023/01/07 11:54:25;;;;;;;5.07;3.42;;;;;;;14.32;54.25;96445.28;2059682;28;20233;-58
2023/01/07 11:55:27;;;;;;;4.97;3.72;;;;;;;13.45;56.35;96453.19;2060558;28;20213;-57
2023/01/07 11:56:32;;;;;;;6.63;4.10;;;;;;;13.65;56.15;96449.38;2055944;28;20253;-57
2023/01/07 11:57:33;;;;;;;4.72;3.35;;;;;;;13.39;56.77;96445.66;2057287;28;20231;-57
2023/01/07 11:58:43;;;;;;;7.45;3.50;;;;;;;13.30;57.09;96446.19;2060220;28;20203;-57
2023/01/07 11:59:44;;;;;;;6.50;4.28;;;;;;;13.01;57.75;96438.22;2058727;28;20199;-57
2023/01/07 12:01:11;;;;;;;7.47;3.90;;;;;;;13.44;56.59;96440.16;2058677;28;20558;-57
2023/01/07 12:02:25;;;;;;;6.80;4.30;;;;;;;13.52;56.71;96440.53;2059502;28;20685;-57
2023/01/07 12:03:26;;;;;;;5.40;3.30;;;;;;;13.73;56.18;96433.16;2060450;28;20226;-57
2023/01/07 12:04:34;;;;;;;6.15;3.92;;;;;;;14.10;54.87;96417.75;2058068;28;20198;-56
2023/01/07 12:05:37;;;;;;;9.77;3.72;;;;;;;13.39;56.69;96428.16;2057703;28;20206;-57
2023/01/07 12:06:43;;;;;;;4.85;3.38;;;;;;;13.22;57.85;96428.28;2058114;28;20229;-57
2023/01/07 12:07:50;;;;;;;5.97;4.05;;;;;;;13.34;57.30;96424.91;2058003;28;20206;-57
2023/01/07 12:09:13;;;;;;;7.28;4.32;;;;;;;12.47;58.92;96428.16;2058996;28;20201;-57
2023/01/07 12:10:25;;;;;;;5.40;3.35;;;;;;;13.29;58.23;96419.09;2056082;28;20297;-58
2023/01/07 12:11:33;;;;;;;6.10;3.65;;;;;;;13.52;57.71;96409.06;2059808;28;20257;-58
2023/01/07 12:12:38;;;;;;;7.80;3.70;;;;;;;13.15;57.34;96366.66;2059594;28;20249;-57
2023/01/07 12:13:46;;;;;;;7.95;4.55;;;;;;;13.04;58.05;96404.00;2059186;28;20204;-57
2023/01/07 12:14:48;;;;;;;7.78;4.72;;;;;;;12.99;58.49;96413.88;2059852;28;20237;-58
2023/01/07 12:15:57;;;;;;;6.22;3.78;;;;;;;12.81;58.42;96400.94;2060543;28;20263;-58
2023/01/07 12:17:15;;;;;;;6.18;3.78;;;;;;;12.81;59.10;96402.69;2058302;28;20232;-58
2023/01/07 12:18:40;;;;;;;5.95;3.83;;;;;;;13.25;58.32;96401.03;2060467;28;20204;-58
2023/01/07 12:20:12;;;;;;;7.78;4.63;;;;;;;11.95;59.97;96384.72;2059218;28;20692;-58
2023/01/07 12:21:22;;;;;;;8.32;4.72;;;;;;;12.03;60.61;96383.41;2057923;28;20202;-58
2023/01/07 12:22:38;;;;;;;6.80;4.43;;;;;;;12.21;60.65;96381.59;2059947;28;20313;-57
2023/01/07 12:23:51;;;;;;;6.15;3.90;;;;;;;12.64;59.10;96382.72;2057768;28;20233;-57
2023/01/07 12:25:20;;;;;;;8.95;4.13;;;;;;;12.26;60.02;96383.94;2059134;28;20211;-57
2023/01/07 12:26:34;;;;;;;6.88;4.38;;;;;;;12.63;59.10;96376.59;2059395;28;20210;-57
2023/01/07 12:27:45;;;;;;;5.90;3.85;;;;;;;12.69;59.12;96381.50;2057466;28;20201;-57
2023/01/07 12:28:49;;;;;;;7.80;4.60;;;;;;;12.61;59.29;96380.25;2056087;28;20208;-57
2023/01/07 12:30:19;;;;;;;5.63;3.92;;;;;;;12.73;59.24;96380.41;2057522;28;20200;-57
2023/01/07 12:31:48;;;;;;;7.90;3.85;;;;;;;13.06;58.42;96381.13;2059484;28;20201;-57
2023/01/07 12:32:59;;;;;;;7.57;5.22;;;;;;;13.14;58.08;96373.69;2058062;28;20227;-57
2023/01/07 12:34:21;;;;;;;5.85;3.45;;;;;;;13.65;57.37;96375.03;2058638;28;20199;-57
2023/01/07 12:35:34;;;;;;;5.63;3.70;;;;;;;14.11;56.09;96373.97;2057712;28;20202;-57
2023/01/07 12:36:53;;;;;;;9.25;4.35;;;;;;;13.65;55.84;96373.28;2057992;28;20265;-57
2023/01/07 12:38:07;;;;;;;6.78;4.10;;;;;;;13.10;57.66;96372.16;2059200;28;20197;-57
2023/01/07 12:39:25;;;;;;;4.85;3.40;;;;;;;12.36;59.17;96369.38;2059188;28;20203;-57
2023/01/07 12:40:48;;;;;;;8.15;3.85;;;;;;;12.37;59.51;96357.16;2057925;28;20213;-57
2023/01/07 12:42:19;;;;;;;6.00;4.00;;;;;;;12.58;59.02;96368.16;2059816;28;20242;-57
2023/01/07 12:43:29;;;;;;;6.40;3.60;;;;;;;12.39;59.50;96363.13;2060115;28;20219;-57
2023/01/07 12:44:33;;;;;;;6.88;3.92;;;;;;;12.43;59.36;96359.44;2059344;28;20301;-57
2023/01/07 12:45:53;;;;;;;5.97;4.03;;;;;;;12.90;59.13;96360.25;2059966;28;20201;-58
2023/01/07 12:47:02;;;;;;;5.28;3.35;;;;;;;12.47;59.61;96354.84;2058442;28;20227;-57
2023/01/07 12:48:35;;;;;;;10.75;4.10;;;;;;;12.39;59.96;96350.03;2059951;28;20255;-57
2023/01/07 12:50:01;;;;;;;5.90;3.45;;;;;;;12.87;59.03;96353.41;2058803;28;20228;-58
2023/01/07 12:51:13;;;;;;;5.85;3.78;;;;;;;13.04;57.87;96347.16;2059533;28;20647;-57
2023/01/07 12:52:28;;;;;;;6.07;3.50;;;;;;;12.76;59.19;96347.94;2057731;28;20217;-57
2023/01/07 12:54:11;;;;;;;5.60;3.80;;;;;;;12.66;59.26;96352.88;2057699;28;20207;-58
2023/01/07 12:55:21;;;;;;;8.70;3.75;;;;;;;12.77;59.36;96349.63;2049549;28;20568;-57
2023/01/07 12:56:31;;;;;;;8.02;3.92;;;;;;;12.67;59.39;96357.19;2048640;28;20216;-57
2023/01/07 12:57:36;;;;;;;6.43;4.18;;;;;;;12.67;58.82;96344.09;2052079;28;20201;-57
2023/01/07 12:59:15;;;;;;;6.15;4.20;;;;;;;12.49;59.28;96347.75;2060310;28;20216;-59
2023/01/07 13:00:45;;;;;;;18.40;10.68;;;;;;;12.35;59.95;96341.50;2059598;28;20321;-58
2023/01/07 13:02:11;;;;;;;6.47;3.70;;;;;;;12.20;59.97;96345.84;2059102;28;20556;-58
2023/01/07 13:03:27;;;;;;;7.00;4.10;;;;;;;11.92;60.70;96342.13;2057600;28;20203;-59
2023/01/07 13:04:41;;;;;;;6.28;3.65;;;;;;;12.29;59.80;96341.03;2060665;28;20200;-59
2023/01/07 13:06:05;;;;;;;7.55;3.65;;;;;;;12.32;60.16;96344.31;2059440;28;20431;-58
2023/01/07 13:07:20;;;;;;;7.30;3.72;;;;;;;12.69;59.59;96344.00;2062754;28;20244;-59
2023/01/07 13:08:42;;;;;;;6.90;3.40;;;;;;;13.21;57.98;96346.16;2064280;28;20559;-59
2023/01/07 13:09:58;;;;;;;8.00;3.58;;;;;;;12.95;57.90;96339.84;2066265;28;20209;-58
2023/01/07 13:11:13;;;;;;;5.20;3.15;;;;;;;12.40;59.14;96336.03;2067999;28;20205;-58
2023/01/07 13:12:45;;;;;;;5.00;3.33;;;;;;;12.23;59.99;96337.81;2067545;28;20870;-58
2023/01/07 13:13:51;;;;;;;7.18;3.80;;;;;;;12.35;59.53;96317.13;2066793;28;20197;-59
2023/01/07 13:14:57;;;;;;;6.20;3.50;;;;;;;12.86;58.88;96317.66;2066157;28;20799;-59
2023/01/07 13:15:59;;;;;;;6.70;4.28;;;;;;;12.93;58.92;96319.91;2065229;28;20205;-59
2023/01/07 13:17:15;;;;;;;6.80;3.72;;;;;;;13.09;58.06;96310.19;2065544;28;20339;-59
2023/01/07 13:18:18;;;;;;;6.15;3.92;;;;;;;12.60;58.93;96320.97;2067631;28;20200;-59
2023/01/07 13:19:20;;;;;;;5.47;3.05;;;;;;;12.71;58.80;96308.91;2067229;28;20208;-61
2023/01/07 13:20:49;;;;;;;6.60;3.47;;;;;;;12.44;59.79;96310.50;2063570;28;20201;-59
2023/01/07 13:21:51;;;;;;;4.47;3.10;;;;;;;12.44;60.44;96310.50;2065588;28;21121;-59
2023/01/07 13:22:55;;;;;;;5.45;3.80;;;;;;;12.63;59.34;96326.84;2065913;28;20264;-59
2023/01/07 13:24:22;;;;;;;4.30;3.25;;;;;;;12.58;59.36;96319.25;2067192;28;20545;-59
2023/01/07 13:25:52;;;;;;;6.78;3.80;;;;;;;11.75;60.48;96313.41;2070543;28;20704;-58
2023/01/07 13:27:22;;;;;;;11.35;4.45;;;;;;;12.07;60.83;96310.81;2066639;28;20236;-58
2023/01/07 13:28:51;;;;;;;4.80;3.03;;;;;;;12.94;58.68;96306.72;2063731;28;20208;-58
2023/01/07 13:29:59;;;;;;;5.60;3.47;;;;;;;13.24;58.04;96313.66;2067772;28;20194;-59
2023/01/07 13:31:25;;;;;;;6.20;3.42;;;;;;;13.12;58.56;96302.13;2070683;28;20200;-59
2023/01/07 13:32:48;;;;;;;7.72;3.85;;;;;;;13.07;58.52;96320.75;2069174;28;20225;-59
2023/01/07 13:34:02;;;;;;;5.88;3.70;;;;;;;12.61;59.12;96318.25;2068103;28;20320;-59
2023/01/07 13:35:35;;;;;;;9.60;4.05;;;;;;;12.63;59.32;96313.75;2063477;28;20205;-59
2023/01/07 13:37:01;;;;;;;7.35;3.55;;;;;;;12.24;59.99;96300.25;2063718;28;20228;-59
2023/01/07 13:38:17;;;;;;;5.55;2.80;;;;;;;12.43;60.02;96300.97;2067418;28;20239;-58
2023/01/07 13:39:22;;;;;;;7.07;3.50;;;;;;;12.39;59.79;96295.06;2066296;28;20209;-59
2023/01/07 13:41:04;;;;;;;4.88;3.10;;;;;;;12.42;59.99;96294.91;2063564;28;20285;-59
2023/01/07 13:42:26;;;;;;;6.30;3.15;;;;;;;12.84;59.04;96289.84;2058188;28;20234;-59
2023/01/07 13:43:48;;;;;;;4.82;3.10;;;;;;;12.57;59.73;96280.91;2057391;28;20205;-58
2023/01/07 13:44:55;;;;;;;5.97;3.65;;;;;;;13.00;59.13;96288.00;2070379;28;20287;-59
2023/01/07 13:46:01;;;;;;;5.47;3.58;;;;;;;12.98;58.12;96291.66;2070285;28;20243;-59
2023/01/07 13:47:04;;;;;;;7.93;3.45;;;;;;;13.08;58.46;96295.41;2066931;28;20279;-59
2023/01/07 13:48:17;;;;;;;5.45;3.20;;;;;;;12.72;58.56;96294.03;2067680;28;20212;-59
2023/01/07 13:49:24;;;;;;;6.13;3.05;;;;;;;12.81;58.92;96287.41;2066845;28;20258;-59
2023/01/07 13:50:37;;;;;;;4.20;2.80;;;;;;;12.61;58.79;96288.56;2065051;28;20426;-58
2023/01/07 13:51:38;;;;;;;6.13;3.10;;;;;;;12.40;59.05;96289.75;2064917;28;20226;-59
2023/01/07 13:52:44;;;;;;;5.30;2.63;;;;;;;12.18;59.74;96279.66;2065671;28;20229;-59
2023/01/07 13:53:46;;;;;;;4.80;3.38;;;;;;;12.13;60.22;96271.22;2067012;28;20296;-58
2023/01/07 13:54:47;;;;;;;4.78;2.92;;;;;;;12.27;60.16;96280.06;2066871;28;20201;-59
2023/01/07 13:55:49;;;;;;;4.38;3.10;;;;;;;12.17;59.63;96282.34;2067048;28;20197;-59
2023/01/07 13:56:51;;;;;;;4.43;2.90;;;;;;;12.31;60.24;96278.97;2064209;28;20255;-59
2023/01/07 13:57:52;;;;;;;4.65;2.80;;;;;;;12.08;59.92;96278.50;2068630;28;20204;-59
2023/01/07 13:58:55;;;;;;;3.40;2.70;;;;;;;11.93;60.55;96282.78;2063687;28;20890;-59
2023/01/07 14:00:00;;;;;;;5.72;3.03;;;;;;;12.21;60.43;96279.50;2065860;28;20215;-59
2023/01/07 14:01:15;;;;;;;8.27;3.33;;;;;;;12.24;60.03;96281.09;2067405;28;20600;-59
2023/01/07 14:02:28;;;;;;;4.00;2.78;;;;;;;12.00;60.55;96280.69;2066906;28;20227;-59
2023/01/07 14:03:33;;;;;;;5.45;3.15;;;;;;;12.10;60.59;96284.50;2064855;28;20285;-59
2023/01/07 14:04:47;;;;;;;5.25;3.67;;;;;;;12.13;60.33;96281.69;2066512;28;21027;-59
2023/01/07 14:05:48;;;;;;;5.13;3.17;;;;;;;12.49;59.92;96275.25;2068570;28;20231;-59
2023/01/07 14:06:51;;;;;;;4.72;3.28;;;;;;;12.39;59.71;96268.88;2064103;28;20269;-59
2023/01/07 14:08:00;;;;;;;7.10;3.28;;;;;;;12.33;59.95;96285.78;2067592;28;20198;-59
2023/01/07 14:09:05;;;;;;;3.40;2.25;;;;;;;12.22;60.01;96289.00;2066938;28;20205;-58
2023/01/07 14:10:36;;;;;;;7.75;3.67;;;;;;;12.26;60.29;96289.69;2066874;28;20668;-59
2023/01/07 14:12:06;;;;;;;5.20;3.10;;;;;;;12.30;59.87;96290.34;2066536;28;20226;-59
2023/01/07 14:13:26;;;;;;;4.65;2.85;;;;;;;12.15;60.01;96284.22;2066897;28;20198;-58
2023/01/07 14:14:48;;;;;;;8.52;3.53;;;;;;;12.62;59.73;96290.25;2066521;28;20320;-59
2023/01/07 14:16:13;;;;;;;4.82;2.78;;;;;;;12.46;59.39;96287.72;2063384;28;20206;-58
2023/01/07 14:17:39;;;;;;;9.27;3.47;;;;;;;11.80;60.92;96282.63;2064097;28;20842;-59
2023/01/07 14:18:52;;;;;;;4.95;2.78;;;;;;;12.08;60.53;96284.56;2070058;28;20203;-59
2023/01/07 14:20:19;;;;;;;14.48;3.10;;;;;;;12.46;60.12;96293.78;2070352;28;20204;-59
2023/01/07 14:21:34;;;;;;;8.80;3.65;;;;;;;12.32;60.03;96284.09;2066442;28;20208;-59
2023/01/07 14:23:18;;;;;;;4.97;3.30;;;;;;;12.15;60.24;96285.06;2067297;28;20205;-59
2023/01/07 14:24:50;;;;;;;4.80;3.17;;;;;;;12.39;60.12;96288.06;2063596;28;20220;-59
2023/01/07 14:26:07;;;;;;;5.10;2.90;;;;;;;12.46;59.68;96292.94;2065447;28;20205;-59
2023/01/07 14:27:57;;;;;;;5.38;3.05;;;;;;;12.31;59.59;96289.44;2066067;28;20208;-59
2023/01/07 14:29:39;;;;;;;4.68;2.95;;;;;;;12.46;59.65;96288.53;2067562;28;20247;-59
2023/01/07 14:30:43;;;;;;;4.60;2.63;;;;;;;11.88;60.50;96290.91;2064705;28;20213;-58
2023/01/07 14:31:45;;;;;;;9.10;3.08;;;;;;;11.98;60.44;96275.53;2065933;28;20256;-59
2023/01/07 14:33:16;;;;;;;3.88;2.20;;;;;;;12.32;60.11;96296.34;2068219;28;20228;-59
2023/01/07 14:34:25;;;;;;;5.68;3.30;;;;;;;12.53;59.42;96289.03;2067950;28;20193;-58
2023/01/07 14:35:37;;;;;;;4.93;2.75;;;;;;;12.74;58.91;96289.56;2067798;28;20201;-59
2023/01/07 14:37:00;;;;;;;5.93;3.17;;;;;;;12.73;58.89;96291.34;2067793;28;20573;-59
2023/01/07 14:38:26;;;;;;;7.15;2.70;;;;;;;13.15;57.98;96288.00;2068766;28;20700;-59
2023/01/07 14:39:42;;;;;;;4.95;2.90;;;;;;;12.65;58.40;96288.31;2069053;28;20257;-59
2023/01/07 14:40:44;;;;;;;4.90;2.55;;;;;;;12.67;58.59;96283.84;2068476;28;20229;-59
2023/01/07 14:42:17;;;;;;;4.90;2.95;;;;;;;12.65;59.02;96293.56;2066548;28;20233;-59
2023/01/07 14:43:42;;;;;;;7.20;3.40;;;;;;;12.66;58.71;96289.13;2069950;28;20233;-59
2023/01/07 14:44:50;;;;;;;4.65;2.35;;;;;;;12.36;59.51;96293.47;2068718;28;20626;-59
2023/01/07 14:45:53;;;;;;;6.35;3.15;;;;;;;12.39;59.54;96306.38;2068693;28;20222;-59
2023/01/07 14:46:54;;;;;;;6.28;3.00;;;;;;;12.19;59.66;96294.44;2065910;28;20625;-59
2023/01/07 14:47:56;;;;;;;5.18;2.90;;;;;;;12.00;60.51;96292.00;2066819;28;20218;-59
2023/01/07 14:49:01;;;;;;;5.38;3.13;;;;;;;12.16;60.42;96294.59;2064159;28;20285;-60
2023/01/07 14:50:24;;;;;;;4.57;2.92;;;;;;;11.59;61.35;96295.94;2065333;28;20259;-61
2023/01/07 14:51:56;;;;;;;4.70;3.00;;;;;;;11.77;61.97;96298.50;2066765;28;20288;-59
2023/01/07 14:53:28;;;;;;;4.47;3.00;;;;;;;11.89;61.31;96296.97;2067348;28;20201;-59
2023/01/07 14:54:59;;;;;;;4.55;2.88;;;;;;;12.02;60.92;96294.53;2068318;28;20234;-59
2023/01/07 14:56:08;;;;;;;4.43;2.75;;;;;;;11.57;61.54;96291.72;2068652;28;20251;-59
2023/01/07 14:57:45;;;;;;;4.28;2.80;;;;;;;11.68;61.51;96288.50;2065316;28;20233;-59
2023/01/07 14:59:06;;;;;;;5.72;3.00;;;;;;;11.92;60.94;96296.78;2067027;28;20206;-59
2023/01/07 15:00:39;;;;;;;5.68;3.33;;;;;;;11.58;61.61;96288.19;2064234;28;20218;-59
2023/01/07 15:01:53;;;;;;;4.38;2.90;;;;;;;11.60;61.78;96287.19;2064937;28;20718;-59
2023/01/07 15:03:16;;;;;;;6.50;2.97;;;;;;;11.65;62.04;96291.31;2067138;28;20210;-59
2023/01/07 15:04:50;;;;;;;4.78;2.78;;;;;;;11.63;61.85;96282.69;2064320;28;20319;-59
2023/01/07 15:06:45;;;;;;;6.18;2.97;;;;;;;11.47;62.11;96288.75;2065690;28;20237;-59
2023/01/07 15:07:51;;;;;;;6.00;3.22;;;;;;;11.13;63.11;96277.47;2053561;28;20863;-59
2023/01/07 15:16:10;;;;;;;8.30;3.90;;;;;;;9.76;67.45;96291.19;2053744;28;20305;-58
2023/01/07 15:17:13;;;;;;;6.25;3.55;;;;;;;9.64;67.70;96282.16;2054732;28;20578;-58
2023/01/07 15:18:15;;;;;;;5.80;3.05;;;;;;;9.60;68.27;96277.19;2047287;29;20211;-59
2023/01/07 15:19:17;;;;;;;5.60;3.30;;;;;;;9.55;68.43;96279.13;2046727;28;20200;-58
2023/01/07 15:20:18;;;;;;;6.30;3.80;;;;;;;9.32;69.11;96284.50;2054734;28;20246;-58
2023/01/07 15:21:40;;;;;;;5.90;3.45;;;;;;;9.42;69.15;96278.84;2051652;28;20225;-58
2023/01/07 15:22:50;;;;;;;5.63;3.38;;;;;;;9.59;68.69;96280.69;2054592;28;20199;-58
2023/01/07 15:24:13;;;;;;;6.72;3.53;;;;;;;9.70;68.35;96281.03;2055024;28;20298;-58
2023/01/07 15:25:33;;;;;;;5.32;3.15;;;;;;;9.61;68.24;96269.28;2055071;28;20207;-58
2023/01/07 15:26:37;;;;;;;7.13;3.33;;;;;;;9.66;68.29;96276.03;2053541;28;20222;-58
2023/01/07 15:28:14;;;;;;;6.95;3.92;;;;;;;9.83;68.10;96270.00;2054878;28;20222;-58
2023/01/07 15:29:42;;;;;;;6.88;3.65;;;;;;;9.69;68.11;96281.97;2055091;28;20233;-58
2023/01/07 15:30:57;;;;;;;6.50;3.47;;;;;;;9.29;69.08;96276.81;2053801;28;20737;-58
2023/01/07 15:32:07;;;;;;;3.92;2.45;;;;;;;9.20;69.75;96272.00;2054494;28;20222;-58
2023/01/07 15:33:39;;;;;;;4.45;3.00;;;;;;;8.99;70.17;96272.06;2054458;28;20282;-59
2023/01/07 15:34:42;;;;;;;7.43;3.13;;;;;;;8.92;70.50;96269.81;2054511;28;20241;-58
2023/01/07 15:35:45;;;;;;;5.25;2.85;;;;;;;8.81;71.04;96263.31;2055166;28;20238;-58
2023/01/07 15:36:51;;;;;;;5.85;3.25;;;;;;;8.76;71.21;96257.47;2053013;28;20227;-58
2023/01/07 15:37:52;;;;;;;6.70;3.25;;;;;;;8.68;71.29;96256.09;2053738;28;20230;-58
2023/01/07 15:38:56;;;;;;;7.10;4.00;;;;;;;8.68;71.65;96261.31;2052691;28;20203;-57
2023/01/07 15:39:58;;;;;;;7.70;4.82;;;;;;;8.56;71.96;96265.25;2066594;28;20206;-57